createdAt,value
2022-10-25T00:00:48.820Z,8.92
2022-10-25T00:03:16.456Z,8.79
2022-10-25T00:05:45.446Z,8.72
2022-10-25T00:08:13.263Z,8.62
2022-10-25T00:10:40.895Z,8.58
2022-10-25T00:13:09.030Z,8.52
2022-10-25T00:15:36.683Z,8.45
2022-10-25T00:18:04.652Z,8.40
2022-10-25T00:20:32.316Z,8.37
2022-10-25T00:23:01.286Z,8.31
2022-10-25T00:25:28.936Z,8.33
2022-10-25T00:27:56.563Z,8.28
2022-10-25T00:30:24.165Z,8.19
2022-10-25T00:32:52.776Z,8.19
2022-10-25T00:35:20.456Z,8.18
2022-10-25T00:37:48.092Z,8.10
2022-10-25T00:40:17.353Z,8.07
2022-10-25T00:42:45.460Z,7.98
2022-10-25T00:45:21.966Z,7.91
2022-10-25T00:47:53.813Z,7.88
2022-10-25T00:50:34.752Z,7.82
2022-10-25T00:53:09.221Z,7.71
2022-10-25T00:55:42.046Z,7.62
2022-10-25T00:58:14.519Z,7.52
2022-10-25T01:00:42.455Z,7.47
2022-10-25T01:03:10.172Z,7.40
2022-10-25T01:05:38.747Z,7.37
2022-10-25T01:08:07.308Z,7.35
2022-10-25T01:10:36.920Z,7.31
2022-10-25T01:13:06.176Z,7.29
2022-10-25T01:15:40.627Z,7.27
2022-10-25T01:18:14.749Z,7.21
2022-10-25T01:21:04.649Z,7.23
2022-10-25T01:23:55.649Z,7.19
2022-10-25T01:26:44.469Z,7.13
2022-10-25T01:29:35.575Z,7.08
2022-10-25T01:32:11.290Z,7.09
2022-10-25T01:34:48.046Z,7.02
2022-10-25T01:37:25.186Z,6.98
2022-10-25T01:40:02.622Z,7.06
2022-10-25T01:42:36.187Z,7.05
2022-10-25T01:45:09.940Z,7.12
2022-10-25T01:47:45.028Z,7.18
2022-10-25T01:50:17.301Z,7.20
2022-10-25T01:52:44.990Z,7.26
2022-10-25T01:55:15.527Z,7.26
2022-10-25T01:58:02.992Z,7.39
2022-10-25T02:00:35.192Z,7.57
2022-10-25T02:03:18.118Z,7.80
2022-10-25T02:05:57.103Z,8.13
2022-10-25T02:08:34.746Z,8.34
2022-10-25T02:11:10.127Z,8.58
2022-10-25T02:13:49.806Z,8.77
2022-10-25T02:16:21.438Z,8.95
2022-10-25T02:18:55.278Z,9.06
2022-10-25T02:21:25.560Z,9.20
2022-10-25T02:23:54.810Z,9.28
2022-10-25T02:26:23.026Z,9.40
2022-10-25T02:28:51.920Z,9.50
2022-10-25T02:31:23.494Z,9.60
2022-10-25T02:33:52.760Z,9.67
2022-10-25T02:36:22.005Z,9.77
2022-10-25T02:38:51.151Z,9.86
2022-10-25T02:41:22.653Z,9.95
2022-10-25T02:43:50.582Z,10.04
2022-10-25T02:46:23.193Z,10.14
2022-10-25T02:48:53.040Z,10.20
2022-10-25T02:51:20.937Z,10.23
2022-10-25T02:53:48.593Z,10.23
2022-10-25T02:56:19.314Z,10.23
2022-10-25T02:58:51.325Z,10.16
2022-10-25T03:01:22.664Z,10.16
2022-10-25T03:03:52.021Z,10.14
2022-10-25T03:06:20.126Z,10.17
2022-10-25T03:08:47.783Z,10.15
2022-10-25T03:11:16.871Z,10.18
2022-10-25T03:13:44.723Z,10.23
2022-10-25T03:16:12.655Z,10.29
2022-10-25T03:18:40.293Z,10.33
2022-10-25T03:21:09.336Z,10.31
2022-10-25T03:23:37.128Z,10.40
2022-10-25T03:26:05.392Z,10.37
2022-10-25T03:28:33.027Z,10.40
2022-10-25T03:31:01.109Z,10.44
2022-10-25T03:35:56.885Z,10.49
2022-10-25T03:38:25.899Z,10.56
2022-10-25T03:40:54.399Z,10.59
2022-10-25T03:45:51.639Z,10.66
2022-10-25T03:48:19.303Z,10.67
2022-10-25T03:50:46.947Z,10.64
2022-10-25T03:53:14.629Z,10.65
2022-10-25T03:55:43.627Z,10.66
2022-10-25T03:58:11.304Z,10.63
2022-10-25T04:00:39.042Z,10.61
2022-10-25T04:05:34.329Z,10.62
2022-10-25T04:08:01.949Z,10.60
2022-10-25T04:10:29.603Z,10.62
2022-10-25T04:12:58.849Z,10.60
2022-10-25T04:15:26.566Z,10.60
2022-10-25T04:17:54.799Z,10.62
2022-10-25T04:20:22.942Z,10.66
2022-10-25T04:22:55.097Z,10.64
2022-10-25T04:25:23.528Z,10.61
2022-10-25T04:27:51.222Z,10.60
2022-10-25T04:30:20.861Z,10.60
2022-10-25T04:32:48.805Z,10.54
2022-10-25T04:35:16.937Z,10.48
2022-10-25T04:37:44.538Z,10.44
2022-10-25T04:40:13.151Z,10.46
2022-10-25T04:42:40.789Z,10.41
2022-10-25T04:45:09.153Z,10.41
2022-10-25T04:47:38.177Z,10.41
2022-10-25T04:50:06.493Z,10.41
2022-10-25T04:52:35.797Z,10.37
2022-10-25T04:55:03.487Z,10.40
2022-10-25T04:57:31.101Z,10.38
2022-10-25T04:59:59.189Z,10.38
2022-10-25T05:02:27.121Z,10.35
2022-10-25T05:04:56.172Z,10.34
2022-10-25T05:07:23.835Z,10.33
2022-10-25T05:09:51.551Z,10.33
2022-10-25T05:12:19.183Z,10.36
2022-10-25T05:14:46.788Z,10.36
2022-10-25T05:17:14.426Z,10.39
2022-10-25T05:19:42.048Z,10.44
2022-10-25T05:22:11.028Z,10.44
2022-10-25T05:24:38.699Z,10.47
2022-10-25T05:27:06.343Z,10.48
2022-10-25T05:29:33.961Z,10.48
2022-10-25T05:32:01.597Z,10.49
2022-10-25T05:34:29.305Z,10.49
2022-10-25T05:36:57.064Z,10.50
2022-10-25T05:39:26.048Z,10.49
2022-10-25T05:41:53.922Z,10.57
2022-10-25T05:44:21.564Z,10.63
2022-10-25T05:46:49.197Z,10.64
2022-10-25T05:49:16.826Z,10.68
2022-10-25T05:51:44.505Z,10.74
2022-10-25T05:54:14.349Z,10.73
2022-10-25T05:56:44.373Z,10.79
2022-10-25T05:59:14.343Z,10.72
2022-10-25T06:01:44.191Z,10.81
2022-10-25T06:04:12.401Z,10.79
2022-10-25T06:06:41.200Z,10.80
2022-10-25T06:09:09.256Z,10.86
2022-10-25T06:11:37.072Z,10.81
2022-10-25T06:14:06.708Z,10.88
2022-10-25T06:16:34.631Z,10.93
2022-10-25T06:19:02.306Z,10.95
2022-10-25T06:21:34.024Z,10.97
2022-10-25T06:24:01.658Z,11.02
2022-10-25T06:26:30.922Z,11.04
2022-10-25T06:29:00.773Z,11.11
2022-10-25T06:31:30.464Z,11.19
2022-10-25T06:34:00.032Z,11.22
2022-10-25T06:36:28.029Z,11.28
2022-10-25T06:38:55.769Z,11.34
2022-10-25T06:41:25.424Z,11.37
2022-10-25T06:43:53.281Z,11.35
2022-10-25T06:46:23.997Z,11.33
2022-10-25T06:48:54.361Z,11.32
2022-10-25T06:51:23.204Z,11.31
2022-10-25T06:53:54.873Z,11.30
2022-10-25T06:56:22.545Z,11.34
2022-10-25T06:58:50.203Z,11.35
2022-10-25T07:01:20.360Z,11.42
2022-10-25T07:03:50.432Z,11.47
2022-10-25T07:06:22.947Z,11.49
2022-10-25T07:08:54.883Z,11.55
2022-10-25T07:11:23.714Z,11.62
2022-10-25T07:13:51.373Z,11.68
2022-10-25T07:16:21.293Z,11.76
2022-10-25T07:18:49.851Z,11.96
2022-10-25T07:21:20.775Z,12.11
2022-10-25T07:23:49.226Z,12.23
2022-10-25T07:26:18.959Z,12.35
2022-10-25T07:28:48.476Z,12.36
2022-10-25T07:31:17.518Z,12.32
2022-10-25T07:33:45.276Z,12.47
2022-10-25T07:36:12.915Z,12.66
2022-10-25T07:38:42.051Z,12.84
2022-10-25T07:41:10.604Z,13.13
2022-10-25T07:43:38.349Z,13.35
2022-10-25T07:46:06.909Z,13.56
2022-10-25T07:48:34.970Z,13.63
2022-10-25T07:51:05.300Z,13.76
2022-10-25T07:53:32.988Z,13.91
2022-10-25T07:56:02.254Z,14.08
2022-10-25T07:58:29.910Z,14.22
2022-10-25T08:01:02.262Z,14.35
2022-10-25T08:03:30.404Z,14.40
2022-10-25T08:06:01.144Z,14.43
2022-10-25T08:08:31.839Z,14.48
2022-10-25T08:10:59.612Z,14.43
2022-10-25T08:13:28.647Z,14.54
2022-10-25T08:15:57.513Z,14.58
2022-10-25T08:18:25.878Z,14.64
2022-10-25T08:21:02.632Z,14.70
2022-10-25T08:23:32.367Z,14.61
2022-10-25T08:26:00.340Z,14.50
2022-10-25T08:28:30.999Z,14.58
2022-10-25T08:30:58.718Z,14.67
2022-10-25T08:33:26.385Z,14.97
2022-10-25T08:35:54.073Z,15.23
2022-10-25T08:38:21.724Z,15.35
2022-10-25T08:40:58.122Z,15.54
2022-10-25T08:43:41.692Z,15.67
2022-10-25T08:46:17.560Z,15.70
2022-10-25T08:48:50.204Z,15.70
2022-10-25T08:51:25.649Z,15.78
2022-10-25T08:53:57.904Z,15.80
2022-10-25T08:56:26.740Z,15.90
2022-10-25T08:58:58.215Z,16.04
2022-10-25T09:01:30.138Z,16.16
2022-10-25T09:04:00.203Z,16.18
2022-10-25T09:06:35.456Z,16.24
2022-10-25T09:09:18.866Z,16.25
2022-10-25T09:12:03.407Z,16.24
2022-10-25T09:14:45.891Z,16.38
2022-10-25T09:17:18.950Z,16.52
2022-10-25T09:20:03.316Z,16.70
2022-10-25T09:22:32.704Z,16.77
2022-10-25T09:25:03.934Z,16.83
2022-10-25T09:27:37.068Z,16.89
2022-10-25T09:30:12.654Z,17.03
2022-10-25T09:32:40.870Z,17.14
2022-10-25T09:35:16.460Z,16.99
2022-10-25T09:37:46.605Z,17.11
2022-10-25T09:40:18.751Z,17.41
2022-10-25T09:42:52.061Z,17.88
2022-10-25T09:45:27.383Z,18.38
2022-10-25T09:48:05.397Z,18.72
2022-10-25T09:50:38.313Z,18.83
2022-10-25T09:53:12.074Z,18.69
2022-10-25T09:55:45.324Z,18.85
2022-10-25T09:58:20.058Z,18.79
2022-10-25T10:00:50.517Z,18.64
2022-10-25T10:03:18.438Z,18.73
2022-10-25T10:05:50.985Z,18.88
2022-10-25T10:08:18.886Z,19.04
2022-10-25T10:10:49.013Z,19.31
2022-10-25T10:13:21.850Z,19.52
2022-10-25T10:15:55.635Z,19.75
2022-10-25T10:18:29.249Z,19.95
2022-10-25T10:21:03.289Z,19.95
2022-10-25T10:23:34.052Z,19.92
2022-10-25T10:26:04.229Z,19.90
2022-10-25T10:28:32.493Z,20.03
2022-10-25T10:31:02.699Z,20.01
2022-10-25T10:33:34.068Z,20.22
2022-10-25T10:36:27.570Z,20.01
2022-10-25T10:38:56.381Z,19.84
2022-10-25T10:41:27.202Z,19.86
2022-10-25T10:44:09.708Z,20.27
2022-10-25T10:46:45.151Z,20.46
2022-10-25T10:49:13.892Z,20.65
2022-10-25T10:51:45.128Z,20.60
2022-10-25T10:54:31.771Z,20.46
2022-10-25T10:57:01.864Z,20.50
2022-10-25T10:59:52.017Z,20.15
2022-10-25T11:02:28.722Z,20.20
2022-10-25T11:04:57.963Z,20.36
2022-10-25T11:07:30.520Z,20.78
2022-10-25T11:10:21.295Z,21.32
2022-10-25T11:13:15.138Z,21.44
2022-10-25T11:16:14.912Z,20.52
2022-10-25T11:18:57.562Z,20.22
2022-10-25T11:21:51.169Z,19.88
2022-10-25T11:24:29.283Z,18.98
2022-10-25T11:27:05.106Z,19.24
2022-10-25T11:29:56.477Z,20.11
2022-10-25T11:32:44.572Z,20.52
2022-10-25T11:35:34.072Z,21.30
2022-10-25T11:38:08.259Z,21.84
2022-10-25T11:40:42.069Z,22.22
2022-10-25T11:43:28.147Z,22.30
2022-10-25T11:46:00.438Z,22.50
2022-10-25T11:48:43.650Z,22.59
2022-10-25T11:51:24.716Z,23.05
2022-10-25T11:54:08.188Z,23.05
2022-10-25T11:56:48.635Z,22.88
2022-10-25T11:59:23.351Z,23.08
2022-10-25T12:02:13.788Z,23.24
2022-10-25T12:04:57.590Z,22.52
2022-10-25T12:07:32.304Z,22.18
2022-10-25T12:10:10.508Z,22.13
2022-10-25T12:12:44.218Z,21.84
2022-10-25T12:15:20.071Z,21.72
2022-10-25T12:17:49.448Z,21.74
2022-10-25T12:20:23.600Z,21.50
2022-10-25T12:22:55.668Z,21.66
2022-10-25T12:25:27.407Z,22.03
2022-10-25T12:28:03.787Z,21.57
2022-10-25T12:30:34.058Z,21.37
2022-10-25T12:33:11.033Z,21.32
2022-10-25T12:35:46.317Z,21.22
2022-10-25T12:38:21.954Z,21.52
2022-10-25T12:40:52.181Z,21.09
2022-10-25T12:43:26.891Z,21.22
2022-10-25T12:46:25.691Z,21.48
2022-10-25T12:49:12.323Z,21.47
2022-10-25T12:51:58.921Z,21.47
2022-10-25T12:54:52.173Z,21.41
2022-10-25T12:57:27.989Z,21.13
2022-10-25T13:00:10.056Z,21.03
2022-10-25T13:03:04.660Z,20.81
2022-10-25T13:06:09.981Z,21.07
2022-10-25T13:08:40.313Z,20.26
2022-10-25T13:11:10.620Z,19.94
2022-10-25T13:13:41.300Z,20.13
2022-10-25T13:16:10.977Z,20.22
2022-10-25T13:18:46.659Z,20.44
2022-10-25T13:21:16.452Z,20.11
2022-10-25T13:24:02.942Z,20.12
2022-10-25T13:27:13.093Z,19.69
2022-10-25T13:30:03.964Z,19.93
2022-10-25T13:32:33.582Z,20.10
2022-10-25T13:35:03.576Z,20.17
2022-10-25T13:37:45.801Z,21.29
2022-10-25T13:40:27.837Z,23.27
2022-10-25T13:43:02.874Z,24.36
2022-10-25T13:45:36.807Z,24.77
2022-10-25T13:48:22.741Z,24.85
2022-10-25T13:50:52.993Z,25.07
2022-10-25T13:53:24.274Z,26.04
2022-10-25T13:56:03.779Z,25.51
2022-10-25T13:58:57.048Z,26.08
2022-10-25T14:01:55.631Z,25.62
2022-10-25T14:04:41.202Z,26.65
2022-10-25T14:07:46.002Z,26.51
2022-10-25T14:10:26.654Z,27.02
2022-10-25T14:12:59.963Z,27.16
2022-10-25T14:15:40.832Z,27.58
2022-10-25T14:18:13.184Z,27.45
2022-10-25T14:20:40.937Z,25.49
2022-10-25T14:23:16.886Z,23.85
2022-10-25T14:25:51.940Z,21.90
2022-10-25T14:28:24.022Z,20.49
2022-10-25T14:30:55.258Z,19.48
2022-10-25T14:33:29.031Z,18.77
2022-10-25T14:35:58.743Z,18.41
2022-10-25T14:38:28.804Z,17.97
2022-10-25T14:40:58.561Z,17.88
2022-10-25T14:43:32.052Z,17.81
2022-10-25T14:46:04.648Z,17.69
2022-10-25T14:48:32.667Z,17.59
2022-10-25T14:51:05.580Z,17.51
2022-10-25T14:53:34.105Z,17.48
2022-10-25T14:56:04.838Z,17.39
2022-10-25T14:58:41.139Z,17.28
2022-10-25T15:01:11.610Z,17.13
2022-10-25T15:03:42.973Z,17.00
2022-10-25T15:06:10.870Z,16.90
2022-10-25T15:08:42.061Z,16.82
2022-10-25T15:11:15.740Z,16.80
2022-10-25T15:13:45.238Z,16.78
2022-10-25T15:16:34.341Z,16.70
2022-10-25T15:19:07.530Z,16.57
2022-10-25T15:21:43.517Z,16.52
2022-10-25T15:24:19.518Z,16.45
2022-10-25T15:26:55.427Z,16.52
2022-10-25T15:32:24.190Z,16.25
2022-10-25T15:34:53.750Z,16.10
2022-10-25T15:37:23.741Z,15.89
2022-10-25T15:40:01.233Z,15.66
2022-10-25T15:42:28.967Z,15.39
2022-10-25T15:44:57.792Z,15.21
2022-10-25T15:47:32.630Z,14.92
2022-10-25T15:50:02.705Z,14.75
2022-10-25T15:52:30.661Z,14.60
2022-10-25T15:54:58.313Z,14.38
2022-10-25T15:57:27.301Z,14.19
2022-10-25T15:59:55.104Z,13.99
2022-10-25T16:02:27.016Z,13.81
2022-10-25T16:04:56.167Z,13.72
2022-10-25T16:07:24.160Z,13.66
2022-10-25T16:09:51.877Z,13.49
2022-10-25T16:12:22.629Z,13.37
2022-10-25T16:14:52.907Z,13.24
2022-10-25T16:17:20.625Z,13.06
2022-10-25T16:19:48.258Z,12.84
2022-10-25T16:22:17.364Z,12.70
2022-10-25T16:24:45.151Z,12.51
2022-10-25T16:27:13.786Z,12.29
2022-10-25T16:29:41.968Z,12.06
2022-10-25T16:32:09.611Z,11.95
2022-10-25T16:34:37.732Z,11.88
2022-10-25T16:37:07.812Z,11.88
2022-10-25T16:39:39.622Z,11.85
2022-10-25T16:42:28.062Z,11.80
2022-10-25T16:44:55.767Z,11.70
2022-10-25T16:47:25.609Z,11.64
2022-10-25T16:49:53.845Z,11.58
2022-10-25T16:52:22.187Z,11.46
2022-10-25T16:54:54.053Z,11.40
2022-10-25T16:57:21.771Z,11.33
2022-10-25T16:59:50.530Z,11.22
2022-10-25T17:02:21.045Z,11.08
2022-10-25T17:04:49.471Z,11.02
2022-10-25T17:07:17.385Z,10.95
2022-10-25T17:09:45.139Z,10.84
2022-10-25T17:12:14.239Z,10.82
2022-10-25T17:14:42.120Z,10.76
2022-10-25T17:17:09.908Z,10.69
2022-10-25T17:19:37.754Z,10.60
2022-10-25T17:22:05.414Z,10.53
2022-10-25T17:24:37.243Z,10.50
2022-10-25T17:29:39.240Z,10.45
2022-10-25T17:32:07.190Z,10.32
2022-10-25T17:34:34.880Z,10.19
2022-10-25T17:37:03.760Z,10.30
2022-10-25T17:39:31.577Z,10.24
2022-10-25T17:41:59.294Z,10.19
2022-10-25T17:44:27.039Z,10.09
2022-10-25T17:46:58.317Z,10.11
2022-10-25T17:49:28.547Z,10.09
2022-10-25T17:51:56.174Z,10.05
2022-10-25T17:54:23.835Z,9.99
2022-10-25T17:56:55.677Z,9.91
2022-10-25T17:59:23.278Z,9.81
2022-10-25T18:01:51.171Z,9.75
2022-10-25T18:04:20.383Z,9.70
2022-10-25T18:06:48.090Z,9.68
2022-10-25T18:09:16.217Z,9.62
2022-10-25T18:11:45.358Z,9.60
2022-10-25T18:14:13.173Z,9.52
2022-10-25T18:16:41.400Z,9.47
2022-10-25T18:19:14.056Z,9.42
2022-10-25T18:21:43.147Z,9.32
2022-10-25T18:24:13.217Z,9.26
2022-10-25T18:26:40.857Z,9.30
2022-10-25T18:29:09.872Z,9.26
2022-10-25T18:31:37.531Z,9.19
2022-10-25T18:34:05.178Z,9.17
2022-10-25T18:36:33.004Z,9.17
2022-10-25T18:39:01.969Z,9.10
2022-10-25T18:41:31.697Z,9.07
2022-10-25T18:44:00.270Z,9.00
2022-10-25T18:46:30.684Z,8.94
2022-10-25T18:48:58.666Z,8.91
2022-10-25T18:51:28.777Z,8.82
2022-10-25T18:53:57.380Z,8.80
2022-10-25T18:56:27.110Z,8.77
2022-10-25T18:58:56.705Z,8.68
2022-10-25T19:01:27.845Z,8.65
2022-10-25T19:03:57.713Z,8.63
2022-10-25T19:06:26.063Z,8.64
2022-10-25T19:08:54.177Z,8.63
2022-10-25T19:11:24.529Z,8.63
2022-10-25T19:13:55.546Z,8.62
2022-10-25T19:16:24.021Z,8.56
2022-10-25T19:18:51.792Z,8.48
2022-10-25T19:21:20.031Z,8.50
2022-10-25T19:23:48.479Z,8.48
2022-10-25T19:26:19.033Z,8.42
2022-10-25T19:28:47.728Z,8.42
2022-10-25T19:31:18.945Z,8.40
2022-10-25T19:33:47.442Z,8.33
2022-10-25T19:36:18.069Z,8.30
2022-10-25T19:38:48.203Z,8.27
2022-10-25T19:41:18.123Z,8.24
2022-10-25T19:43:45.988Z,8.21
2022-10-25T19:46:14.676Z,8.26
2022-10-25T19:48:43.826Z,8.24
2022-10-25T19:51:13.387Z,8.23
2022-10-25T19:53:41.304Z,8.18
2022-10-25T19:56:11.623Z,8.15
2022-10-25T19:58:39.384Z,8.10
2022-10-25T20:01:09.629Z,8.07
2022-10-25T20:03:38.067Z,8.06
2022-10-25T20:06:09.305Z,8.12
2022-10-25T20:08:39.224Z,8.13
2022-10-25T20:11:07.681Z,8.09
2022-10-25T20:13:35.674Z,8.10
2022-10-25T20:16:08.930Z,8.02
2022-10-25T20:18:38.423Z,8.08
2022-10-25T20:21:11.244Z,8.07
2022-10-25T20:23:39.967Z,8.10
2022-10-25T20:26:14.596Z,8.13
2022-10-25T20:28:42.581Z,8.12
2022-10-25T20:31:10.578Z,8.07
2022-10-25T20:33:39.498Z,8.08
2022-10-25T20:36:11.920Z,8.07
2022-10-25T20:38:40.091Z,8.00
2022-10-25T20:41:10.938Z,7.98
2022-10-25T20:43:39.089Z,8.00
2022-10-25T20:46:07.839Z,8.01
2022-10-25T20:48:35.934Z,8.04
2022-10-25T20:51:06.970Z,7.94
2022-10-25T20:53:37.177Z,7.93
2022-10-25T20:56:05.280Z,7.92
2022-10-25T20:58:34.693Z,7.85
2022-10-25T21:01:03.135Z,7.84
2022-10-25T21:03:32.098Z,7.83
2022-10-25T21:06:04.573Z,7.87
2022-10-25T21:08:32.851Z,7.84
2022-10-25T21:11:03.238Z,7.84
2022-10-25T21:13:32.612Z,7.83
2022-10-25T21:16:05.188Z,7.83
2022-10-25T21:18:32.801Z,7.77
2022-10-25T21:21:02.075Z,7.66
2022-10-25T21:23:31.040Z,7.62
2022-10-25T21:25:59.511Z,7.73
2022-10-25T21:28:33.148Z,7.71
2022-10-25T21:31:05.396Z,7.66
2022-10-25T21:33:33.036Z,7.61
2022-10-25T21:36:04.121Z,7.59
2022-10-25T21:38:31.769Z,7.47
2022-10-25T21:41:06.525Z,7.37
2022-10-25T21:43:35.936Z,7.43
2022-10-25T21:46:13.608Z,7.45
2022-10-25T21:48:41.923Z,7.42
2022-10-25T21:51:09.553Z,7.38
2022-10-25T21:53:37.663Z,7.32
2022-10-25T21:56:07.406Z,7.38
2022-10-25T21:58:36.389Z,7.48
2022-10-25T22:01:07.418Z,7.49
2022-10-25T22:03:35.154Z,7.41
2022-10-25T22:06:03.219Z,7.38
2022-10-25T22:08:30.840Z,7.34
2022-10-25T22:13:35.790Z,7.23
2022-10-25T22:16:08.016Z,7.13
2022-10-25T22:18:36.024Z,7.07
2022-10-25T22:21:06.473Z,7.04
2022-10-25T22:23:34.586Z,6.96
2022-10-25T22:26:06.274Z,6.85
2022-10-25T22:28:38.256Z,6.97
2022-10-25T22:31:11.261Z,6.91
2022-10-25T22:33:39.817Z,6.97
2022-10-25T22:36:09.126Z,6.98
2022-10-25T22:38:37.144Z,7.03
2022-10-25T22:41:06.858Z,7.05
2022-10-25T22:43:35.394Z,7.02
2022-10-25T22:46:04.311Z,6.97
2022-10-25T22:48:33.737Z,6.96
2022-10-25T22:51:01.849Z,6.94
2022-10-25T22:53:29.757Z,7.02
2022-10-25T22:55:59.118Z,7.12
2022-10-25T23:04:45.157Z,7.04
2022-10-25T23:07:12.816Z,7.13
2022-10-25T23:09:40.409Z,7.12
2022-10-25T23:12:08.110Z,7.12
2022-10-25T23:14:35.705Z,7.16
2022-10-25T23:17:03.361Z,7.31
2022-10-25T23:19:30.961Z,7.39
2022-10-25T23:21:59.974Z,7.34
2022-10-25T23:24:27.656Z,7.41
2022-10-25T23:26:55.265Z,7.38
2022-10-25T23:29:22.884Z,7.39
2022-10-25T23:31:50.518Z,7.46
2022-10-25T23:34:18.176Z,7.56
2022-10-25T23:36:47.271Z,7.59
2022-10-25T23:39:16.252Z,7.63
2022-10-25T23:41:44.830Z,7.69
2022-10-25T23:44:12.425Z,7.72
2022-10-25T23:46:40.008Z,7.81
2022-10-25T23:49:07.641Z,7.84
2022-10-25T23:51:36.116Z,7.87
2022-10-25T23:54:04.340Z,7.94
2022-10-25T23:56:33.272Z,7.90
2022-10-25T23:59:00.887Z,7.93
